createdAt,value
2022-08-28T00:00:14.129Z,2.05
2022-08-28T00:02:41.922Z,4.03
2022-08-28T00:05:11.635Z,1.90
2022-08-28T00:07:38.911Z,3.38
2022-08-28T00:10:09.333Z,1.73
2022-08-28T00:12:38.559Z,2.22
2022-08-28T00:15:10.528Z,2.15
2022-08-28T00:17:40.327Z,2.53
2022-08-28T00:20:10.309Z,2.73
2022-08-28T00:22:38.873Z,2.28
2022-08-28T00:25:09.319Z,2.27
2022-08-28T00:27:55.614Z,4.53
2022-08-28T00:30:43.602Z,2.15
2022-08-28T00:33:22.471Z,3.30
2022-08-28T00:35:51.124Z,2.72
2022-08-28T00:38:20.071Z,1.92
2022-08-28T00:40:51.894Z,2.00
2022-08-28T00:43:38.551Z,2.13
2022-08-28T00:46:20.075Z,2.70
2022-08-28T00:48:47.616Z,3.30
2022-08-28T00:51:36.830Z,3.80
2022-08-28T00:54:07.924Z,2.58
2022-08-28T00:56:38.215Z,2.88
2022-08-28T00:59:11.964Z,4.57
2022-08-28T01:01:39.440Z,2.40
2022-08-28T01:04:07.412Z,2.72
2022-08-28T01:06:36.146Z,3.63
2022-08-28T01:09:04.960Z,2.35
2022-08-28T01:11:32.634Z,4.35
2022-08-28T01:14:03.176Z,2.92
2022-08-28T01:16:33.913Z,3.42
2022-08-28T01:19:07.924Z,3.17
2022-08-28T01:21:50.726Z,4.25
2022-08-28T01:24:19.355Z,3.53
2022-08-28T01:26:47.256Z,4.32
2022-08-28T01:29:15.011Z,3.75
2022-08-28T01:31:43.025Z,5.45
2022-08-28T01:34:13.118Z,5.28
2022-08-28T01:36:42.237Z,3.72
2022-08-28T01:39:18.433Z,4.63
2022-08-28T01:41:51.863Z,5.25
2022-08-28T01:44:26.000Z,5.97
2022-08-28T01:46:56.961Z,3.70
2022-08-28T01:49:25.283Z,4.65
2022-08-28T01:51:52.446Z,5.22
2022-08-28T01:54:22.155Z,4.85
2022-08-28T01:56:49.641Z,5.00
2022-08-28T01:59:17.000Z,4.37
2022-08-28T02:01:44.814Z,4.57
2022-08-28T02:04:13.255Z,4.05
2022-08-28T02:06:43.535Z,3.85
2022-08-28T02:09:14.468Z,3.80
2022-08-28T02:11:46.793Z,2.90
2022-08-28T02:14:14.606Z,4.00
2022-08-28T02:16:41.970Z,3.42
2022-08-28T02:19:09.478Z,3.97
2022-08-28T02:21:36.568Z,4.55
2022-08-28T02:24:04.964Z,4.05
2022-08-28T02:26:33.339Z,3.40
2022-08-28T02:29:00.706Z,3.63
2022-08-28T02:31:27.998Z,2.90
2022-08-28T02:33:55.946Z,3.65
2022-08-28T02:36:24.011Z,3.45
2022-08-28T02:38:57.449Z,4.30
2022-08-28T02:41:25.306Z,4.40
2022-08-28T02:43:52.506Z,2.97
2022-08-28T02:46:19.595Z,3.55
2022-08-28T02:48:47.032Z,3.97
2022-08-28T02:51:14.966Z,3.00
2022-08-28T02:53:43.014Z,3.80
2022-08-28T02:56:10.500Z,3.75
2022-08-28T02:58:39.300Z,3.72
2022-08-28T03:01:10.927Z,3.38
2022-08-28T03:03:40.798Z,3.85
2022-08-28T03:06:09.182Z,3.80
2022-08-28T03:08:36.249Z,4.20
2022-08-28T03:11:03.295Z,3.35
2022-08-28T03:13:30.972Z,4.22
2022-08-28T03:15:58.350Z,4.70
2022-08-28T03:18:30.259Z,5.78
2022-08-28T03:20:57.604Z,2.92
2022-08-28T03:23:27.781Z,4.20
2022-08-28T03:26:14.856Z,2.65
2022-08-28T03:28:49.635Z,2.60
2022-08-28T03:31:20.961Z,2.95
2022-08-28T03:33:48.570Z,4.82
2022-08-28T03:36:24.032Z,2.42
2022-08-28T03:38:53.347Z,2.35
2022-08-28T03:41:23.597Z,3.38
2022-08-28T03:43:51.444Z,3.60
2022-08-28T03:46:23.692Z,3.38
2022-08-28T03:48:52.461Z,3.50
2022-08-28T03:51:29.356Z,2.63
2022-08-28T03:53:58.895Z,3.80
2022-08-28T03:56:29.028Z,4.05
2022-08-28T03:59:01.489Z,2.60
2022-08-28T04:01:28.891Z,3.17
2022-08-28T04:03:56.460Z,2.43
2022-08-28T04:06:23.654Z,2.65
2022-08-28T04:08:51.145Z,2.42
2022-08-28T04:11:18.624Z,5.23
2022-08-28T04:13:45.749Z,3.28
2022-08-28T04:16:19.497Z,2.20
2022-08-28T04:18:49.202Z,2.90
2022-08-28T04:21:27.166Z,5.25
2022-08-28T04:23:55.170Z,2.78
2022-08-28T04:26:25.882Z,2.75
2022-08-28T04:28:55.295Z,2.45
2022-08-28T04:31:31.607Z,2.95
2022-08-28T04:34:05.978Z,4.05
2022-08-28T04:36:36.114Z,3.55
2022-08-28T04:39:06.097Z,2.92
2022-08-28T04:41:33.115Z,2.20
2022-08-28T04:44:00.112Z,3.20
2022-08-28T04:46:30.971Z,4.50
2022-08-28T04:48:58.648Z,3.90
2022-08-28T04:51:26.432Z,5.00
2022-08-28T04:53:53.471Z,4.18
2022-08-28T04:56:20.547Z,3.47
2022-08-28T04:58:47.705Z,2.45
2022-08-28T05:01:20.024Z,4.18
2022-08-28T05:03:51.946Z,3.15
2022-08-28T05:06:18.945Z,3.60
2022-08-28T05:08:45.958Z,3.60
2022-08-28T05:11:33.475Z,2.53
2022-08-28T05:14:05.507Z,4.35
2022-08-28T05:16:39.468Z,1.55
2022-08-28T05:19:06.508Z,3.15
2022-08-28T05:21:33.571Z,3.10
2022-08-28T05:24:00.966Z,4.65
2022-08-28T05:26:29.844Z,3.97
2022-08-28T05:28:59.372Z,3.85
2022-08-28T05:31:29.081Z,3.20
2022-08-28T05:34:04.669Z,2.72
2022-08-28T05:36:36.787Z,4.17
2022-08-28T05:39:08.106Z,4.40
2022-08-28T05:41:35.979Z,4.03
2022-08-28T05:44:07.965Z,2.70
2022-08-28T05:46:37.591Z,3.70
2022-08-28T05:49:09.144Z,1.85
2022-08-28T05:51:40.204Z,3.05
2022-08-28T05:54:07.309Z,3.83
2022-08-28T05:56:38.660Z,2.92
2022-08-28T05:59:07.026Z,3.17
2022-08-28T06:01:39.808Z,2.47
2022-08-28T06:04:12.373Z,3.25
2022-08-28T06:06:41.174Z,2.15
2022-08-28T06:09:20.058Z,3.53
2022-08-28T06:11:48.037Z,2.42
2022-08-28T06:14:20.684Z,3.07
2022-08-28T06:16:52.989Z,3.47
2022-08-28T06:19:23.072Z,2.70
2022-08-28T06:21:54.287Z,2.60
2022-08-28T06:24:21.284Z,4.05
2022-08-28T06:26:48.329Z,3.88
2022-08-28T06:29:18.423Z,2.00
2022-08-28T06:31:54.833Z,3.35
2022-08-28T06:34:22.347Z,2.28
2022-08-28T06:36:53.635Z,2.88
2022-08-28T06:39:22.088Z,1.60
2022-08-28T06:41:49.367Z,3.03
2022-08-28T06:44:20.537Z,1.75
2022-08-28T06:46:51.563Z,3.92
2022-08-28T06:49:19.063Z,3.28
2022-08-28T06:51:46.142Z,2.25
2022-08-28T06:54:18.328Z,2.63
2022-08-28T06:56:48.893Z,3.88
2022-08-28T06:59:15.926Z,3.38
2022-08-28T07:01:43.102Z,3.53
2022-08-28T07:04:13.728Z,2.60
2022-08-28T07:06:46.855Z,2.95
2022-08-28T07:09:14.293Z,1.92
2022-08-28T07:11:43.704Z,2.15
2022-08-28T07:14:10.880Z,3.30
2022-08-28T07:16:39.379Z,3.38
2022-08-28T07:19:10.520Z,2.22
2022-08-28T07:21:41.940Z,2.37
2022-08-28T07:24:12.139Z,3.25
2022-08-28T07:26:41.163Z,2.20
2022-08-28T07:29:10.867Z,2.80
2022-08-28T07:31:44.031Z,2.50
2022-08-28T07:34:14.997Z,1.42
2022-08-28T07:36:43.153Z,4.57
2022-08-28T07:39:13.509Z,3.78
2022-08-28T07:41:42.909Z,3.33
2022-08-28T07:44:31.668Z,3.38
2022-08-28T07:47:04.189Z,1.65
2022-08-28T07:49:33.851Z,2.83
2022-08-28T07:52:02.273Z,3.27
2022-08-28T07:54:29.316Z,3.45
2022-08-28T07:56:56.288Z,2.90
2022-08-28T07:59:23.727Z,3.53
2022-08-28T08:01:52.246Z,3.22
2022-08-28T08:04:21.656Z,2.25
2022-08-28T08:06:51.457Z,3.43
2022-08-28T08:09:22.308Z,5.30
2022-08-28T08:11:49.763Z,4.00
2022-08-28T08:14:17.836Z,4.00
2022-08-28T08:16:46.197Z,4.20
2022-08-28T08:19:14.645Z,2.78
2022-08-28T08:21:45.707Z,4.20
2022-08-28T08:24:17.982Z,3.90
2022-08-28T08:27:00.366Z,2.75
2022-08-28T08:29:35.907Z,5.10
2022-08-28T08:32:07.935Z,3.13
2022-08-28T08:34:41.653Z,3.95
2022-08-28T08:37:10.489Z,4.15
2022-08-28T08:39:38.104Z,4.35
2022-08-28T08:42:18.660Z,6.47
2022-08-28T08:44:48.367Z,3.83
2022-08-28T08:47:49.271Z,3.25
2022-08-28T08:50:35.536Z,4.53
2022-08-28T08:53:46.829Z,5.68
2022-08-28T08:56:17.085Z,4.03
2022-08-28T08:58:52.485Z,2.30
2022-08-28T09:02:05.264Z,3.78
2022-08-28T09:04:40.877Z,4.63
2022-08-28T09:07:18.787Z,4.30
2022-08-28T09:09:53.714Z,2.55
2022-08-28T09:12:26.162Z,2.88
2022-08-28T09:15:08.792Z,1.90
2022-08-28T09:17:44.911Z,2.38
2022-08-28T09:20:18.444Z,2.65
2022-08-28T09:22:50.127Z,2.77
2022-08-28T09:25:44.972Z,2.42
2022-08-28T09:28:19.908Z,3.28
2022-08-28T09:30:57.582Z,2.53
2022-08-28T09:33:38.015Z,4.53
2022-08-28T09:36:34.337Z,3.20
2022-08-28T09:39:10.842Z,3.85
2022-08-28T09:42:37.222Z,5.30
2022-08-28T09:45:30.258Z,3.25
2022-08-28T09:47:58.962Z,1.67
2022-08-28T09:50:38.931Z,3.08
2022-08-28T09:53:11.740Z,2.70
2022-08-28T09:55:55.481Z,2.33
2022-08-28T09:58:28.061Z,2.80
2022-08-28T10:01:25.371Z,1.52
2022-08-28T10:04:35.294Z,2.65
2022-08-28T10:07:15.384Z,4.47
2022-08-28T10:09:51.085Z,3.03
2022-08-28T10:12:41.923Z,2.78
2022-08-28T10:15:49.584Z,3.42
2022-08-28T10:18:30.394Z,2.03
2022-08-28T10:21:32.096Z,3.45
2022-08-28T10:24:31.287Z,4.85
2022-08-28T10:27:38.338Z,4.22
2022-08-28T10:30:40.962Z,2.65
2022-08-28T10:33:45.644Z,3.10
2022-08-28T10:36:34.780Z,2.55
2022-08-28T10:39:59.124Z,2.38
2022-08-28T10:42:50.892Z,3.92
2022-08-28T10:45:23.806Z,1.60
2022-08-28T10:48:08.720Z,2.88
2022-08-28T10:50:50.647Z,1.70
2022-08-28T10:53:30.338Z,2.67
2022-08-28T10:56:10.614Z,2.22
2022-08-28T10:58:40.922Z,2.65
2022-08-28T11:01:23.709Z,2.10
2022-08-28T11:03:52.140Z,5.85
2022-08-28T11:06:39.029Z,3.23
2022-08-28T11:09:35.996Z,2.05
2022-08-28T11:12:36.997Z,2.67
2022-08-28T11:15:48.055Z,2.97
2022-08-28T11:18:15.800Z,1.67
2022-08-28T11:21:15.246Z,3.15
2022-08-28T11:24:00.147Z,2.72
2022-08-28T11:26:41.542Z,1.25
2022-08-28T11:29:08.904Z,4.68
2022-08-28T11:31:40.243Z,1.98
2022-08-28T11:34:07.818Z,3.30
2022-08-28T11:36:34.727Z,2.35
2022-08-28T11:39:13.632Z,1.73
2022-08-28T11:45:01.471Z,2.60
2022-08-28T11:47:56.640Z,3.67
2022-08-28T11:50:29.946Z,1.58
2022-08-28T11:53:36.551Z,2.50
2022-08-28T11:56:44.519Z,2.00
2022-08-28T11:59:35.343Z,2.17
2022-08-28T12:02:39.431Z,1.52
2022-08-28T12:05:15.697Z,0.80
2022-08-28T12:07:47.004Z,1.23
2022-08-28T12:10:22.736Z,1.27
2022-08-28T12:12:55.622Z,1.48
2022-08-28T12:15:28.682Z,1.30
2022-08-28T12:18:14.325Z,2.60
2022-08-28T12:21:04.246Z,1.10
2022-08-28T12:23:45.050Z,3.40
2022-08-28T12:26:41.772Z,4.30
2022-08-28T12:29:34.604Z,5.20
2022-08-28T12:32:26.537Z,5.30
2022-08-28T12:34:59.435Z,4.63
2022-08-28T12:37:42.926Z,2.00
2022-08-28T12:40:41.594Z,1.92
2022-08-28T12:43:15.597Z,1.77
2022-08-28T12:45:49.825Z,2.63
2022-08-28T12:48:20.925Z,5.38
2022-08-28T12:50:56.619Z,4.10
2022-08-28T12:53:26.136Z,1.35
2022-08-28T12:55:54.191Z,1.20
2022-08-28T12:58:39.928Z,5.40
2022-08-28T13:01:32.586Z,3.93
2022-08-28T13:04:19.875Z,2.30
2022-08-28T13:06:46.866Z,1.83
2022-08-28T13:09:18.734Z,1.48
2022-08-28T13:11:50.335Z,2.20
2022-08-28T13:14:44.173Z,2.17
2022-08-28T13:17:14.005Z,2.95
2022-08-28T13:19:41.482Z,2.15
2022-08-28T13:22:39.692Z,2.20
2022-08-28T13:25:08.183Z,2.08
2022-08-28T13:27:36.075Z,2.67
2022-08-28T13:30:20.981Z,1.45
2022-08-28T13:33:01.941Z,3.15
2022-08-28T13:35:38.917Z,2.80
2022-08-28T13:38:16.551Z,3.53
2022-08-28T13:41:03.630Z,1.33
2022-08-28T13:43:45.930Z,1.80
2022-08-28T13:46:13.911Z,1.73
2022-08-28T13:48:41.004Z,1.58
2022-08-28T13:51:14.295Z,2.88
2022-08-28T13:53:48.238Z,1.65
2022-08-28T13:56:17.358Z,3.08
2022-08-28T13:58:44.734Z,4.18
2022-08-28T14:01:44.579Z,2.50
2022-08-28T14:04:13.115Z,1.52
2022-08-28T14:06:44.051Z,1.92
2022-08-28T14:09:17.606Z,2.15
2022-08-28T14:11:49.730Z,1.50
2022-08-28T14:14:18.048Z,3.28
2022-08-28T14:16:45.797Z,3.70
2022-08-28T14:19:13.464Z,0.70
2022-08-28T14:21:41.438Z,3.42
2022-08-28T14:24:08.717Z,3.10
2022-08-28T14:26:36.229Z,4.95
2022-08-28T14:29:07.483Z,2.35
2022-08-28T14:31:36.892Z,2.45
2022-08-28T14:34:05.534Z,3.25
2022-08-28T14:36:33.271Z,5.45
2022-08-28T14:39:06.188Z,2.53
2022-08-28T14:41:34.725Z,2.72
2022-08-28T14:44:02.239Z,3.05
2022-08-28T14:46:35.936Z,4.03
2022-08-28T14:49:08.479Z,3.60
2022-08-28T14:51:38.431Z,2.45
2022-08-28T14:54:06.599Z,3.55
2022-08-28T14:56:34.367Z,1.90
2022-08-28T14:59:04.061Z,1.77
2022-08-28T15:01:40.358Z,1.95
2022-08-28T15:04:12.386Z,1.30
2022-08-28T15:06:42.513Z,1.40
2022-08-28T15:09:12.332Z,2.00
2022-08-28T15:11:40.134Z,1.75
2022-08-28T15:14:07.241Z,2.53
2022-08-28T15:16:39.238Z,1.75
2022-08-28T15:19:18.515Z,2.23
2022-08-28T15:21:51.454Z,1.17
2022-08-28T15:24:26.344Z,3.80
2022-08-28T15:26:53.909Z,1.98
2022-08-28T15:29:21.247Z,1.45
2022-08-28T15:31:50.318Z,3.03
2022-08-28T15:34:28.427Z,2.20
2022-08-28T15:36:57.352Z,1.60
2022-08-28T15:39:47.246Z,1.40
2022-08-28T15:42:15.339Z,1.45
2022-08-28T15:44:43.416Z,1.23
2022-08-28T15:47:12.622Z,1.40
2022-08-28T15:49:44.739Z,1.33
2022-08-28T15:52:18.262Z,1.77
2022-08-28T15:54:45.601Z,1.27
2022-08-28T15:57:14.661Z,0.75
2022-08-28T15:59:49.897Z,1.50
2022-08-28T16:02:23.364Z,1.30
2022-08-28T16:04:51.569Z,1.13
2022-08-28T16:07:21.576Z,1.25
2022-08-28T16:09:49.499Z,0.70
2022-08-28T16:12:17.278Z,1.50
2022-08-28T16:14:44.531Z,0.80
2022-08-28T16:17:11.744Z,0.63
2022-08-28T16:19:40.812Z,1.23
2022-08-28T16:22:10.567Z,1.83
2022-08-28T16:24:38.225Z,1.48
2022-08-28T16:29:52.947Z,1.10
2022-08-28T16:32:20.407Z,1.38
2022-08-28T16:34:47.886Z,1.20
2022-08-28T16:35:49.535Z,1.15
2022-08-28T16:37:18.602Z,1.10
2022-08-28T16:39:48.041Z,1.42
2022-08-28T16:42:15.557Z,1.30
2022-08-28T16:44:42.575Z,0.70
2022-08-28T16:47:09.869Z,0.82
2022-08-28T16:49:37.010Z,1.25
2022-08-28T16:52:04.136Z,0.70
2022-08-28T16:54:31.290Z,1.17
2022-08-28T16:56:58.482Z,1.20
2022-08-28T16:59:25.611Z,0.77
2022-08-28T17:01:53.094Z,0.88
2022-08-28T17:04:21.757Z,1.90
2022-08-28T17:06:49.258Z,0.88
2022-08-28T17:09:16.317Z,1.45
2022-08-28T17:11:43.369Z,1.33
2022-08-28T17:14:11.994Z,2.00
2022-08-28T17:16:39.187Z,1.05
2022-08-28T17:19:06.256Z,1.08
2022-08-28T17:21:52.003Z,0.82
2022-08-28T17:24:19.384Z,0.98
2022-08-28T17:26:47.252Z,1.08
2022-08-28T17:29:14.405Z,1.15
2022-08-28T17:31:41.774Z,2.28
2022-08-28T17:34:09.157Z,1.40
2022-08-28T17:36:38.322Z,3.58
2022-08-28T17:39:11.769Z,4.35
2022-08-28T17:41:41.097Z,4.88
2022-08-28T17:44:08.557Z,7.30
2022-08-28T17:46:38.038Z,4.38
2022-08-28T17:49:06.067Z,7.38
2022-08-28T17:51:43.706Z,8.25
2022-08-28T17:54:14.004Z,6.30
2022-08-28T17:56:41.858Z,5.57
2022-08-28T17:59:12.566Z,7.82
2022-08-28T18:01:41.052Z,5.47
2022-08-28T18:04:09.068Z,6.20
2022-08-28T18:06:36.652Z,5.43
2022-08-28T18:09:06.003Z,7.40
2022-08-28T18:11:33.247Z,5.88
2022-08-28T18:14:00.822Z,5.60
2022-08-28T18:16:31.297Z,6.15
2022-08-28T18:19:00.344Z,4.90
2022-08-28T18:21:28.675Z,6.97
2022-08-28T18:23:56.046Z,5.95
2022-08-28T18:26:23.538Z,4.30
2022-08-28T18:28:51.229Z,4.95
2022-08-28T18:31:19.687Z,4.80
2022-08-28T18:33:46.774Z,4.90
2022-08-28T18:36:15.256Z,3.53
2022-08-28T18:38:43.587Z,3.88
2022-08-28T18:41:12.090Z,3.63
2022-08-28T18:43:39.503Z,3.13
2022-08-28T18:46:09.275Z,2.63
2022-08-28T18:48:37.953Z,3.03
2022-08-28T18:51:11.684Z,2.60
2022-08-28T18:53:39.335Z,2.95
2022-08-28T18:56:12.162Z,3.25
2022-08-28T18:58:41.763Z,3.47
2022-08-28T19:01:10.499Z,3.20
2022-08-28T19:03:37.893Z,2.25
2022-08-28T19:06:06.409Z,3.08
2022-08-28T19:08:35.346Z,4.05
2022-08-28T19:11:08.881Z,2.50
2022-08-28T19:13:36.704Z,1.20
2022-08-28T19:16:04.787Z,3.20
2022-08-28T19:18:31.919Z,1.38
2022-08-28T19:21:09.214Z,1.90
2022-08-28T19:23:37.184Z,1.63
2022-08-28T19:26:06.718Z,3.33
2022-08-28T19:28:35.479Z,1.27
2022-08-28T19:31:04.495Z,1.70
2022-08-28T19:33:32.289Z,1.55
2022-08-28T19:35:59.532Z,1.98
2022-08-28T19:38:26.568Z,1.80
2022-08-28T19:40:58.030Z,0.87
2022-08-28T19:43:25.371Z,2.17
2022-08-28T19:46:14.097Z,2.25
2022-08-28T19:48:48.190Z,1.17
2022-08-28T19:51:22.389Z,1.63
2022-08-28T19:53:58.348Z,1.92
2022-08-28T19:56:28.689Z,2.42
2022-08-28T19:58:59.106Z,1.13
2022-08-28T20:01:37.825Z,1.45
2022-08-28T20:04:07.941Z,1.17
2022-08-28T20:06:36.696Z,1.70
2022-08-28T20:09:08.315Z,1.20
2022-08-28T20:11:39.992Z,2.10
2022-08-28T20:14:07.233Z,2.20
2022-08-28T20:16:42.044Z,1.60
2022-08-28T20:19:11.450Z,1.25
2022-08-28T20:21:41.203Z,1.40
2022-08-28T20:24:13.768Z,1.63
2022-08-28T20:26:41.398Z,1.67
2022-08-28T20:29:10.015Z,2.65
2022-08-28T20:31:43.935Z,2.20
2022-08-28T20:34:12.600Z,3.22
2022-08-28T20:36:40.418Z,2.45
2022-08-28T20:39:09.404Z,2.53
2022-08-28T20:41:39.384Z,1.63
2022-08-28T20:44:08.043Z,2.20
2022-08-28T20:46:40.927Z,2.67
2022-08-28T20:49:12.054Z,1.90
2022-08-28T20:51:53.320Z,2.13
2022-08-28T20:54:28.684Z,1.88
2022-08-28T20:56:58.203Z,1.57
2022-08-28T20:59:28.907Z,1.90
2022-08-28T21:02:02.842Z,1.63
2022-08-28T21:04:30.471Z,3.53
2022-08-28T21:06:58.104Z,2.80
2022-08-28T21:09:43.963Z,1.10
2022-08-28T21:12:12.825Z,1.88
2022-08-28T21:14:40.329Z,1.38
2022-08-28T21:17:07.566Z,1.33
2022-08-28T21:19:40.151Z,1.15
2022-08-28T21:22:07.836Z,1.63
2022-08-28T21:24:35.627Z,1.63
2022-08-28T21:27:02.924Z,1.05
2022-08-28T21:29:30.423Z,1.80
2022-08-28T21:31:57.428Z,1.58
2022-08-28T21:34:24.761Z,3.00
2022-08-28T21:36:51.892Z,1.23
2022-08-28T21:39:23.479Z,2.43
2022-08-28T21:41:51.235Z,1.77
2022-08-28T21:44:18.667Z,2.70
2022-08-28T21:46:46.017Z,2.30
2022-08-28T21:49:13.203Z,1.83
2022-08-28T21:51:40.323Z,1.40
2022-08-28T21:54:07.637Z,1.65
2022-08-28T21:56:34.681Z,1.05
2022-08-28T21:59:02.140Z,2.00
2022-08-28T22:01:29.363Z,2.05
2022-08-28T22:03:57.109Z,0.93
2022-08-28T22:06:26.504Z,2.10
2022-08-28T22:08:55.143Z,0.90
2022-08-28T22:11:25.199Z,2.30
2022-08-28T22:13:54.656Z,1.25
2022-08-28T22:16:22.224Z,1.60
2022-08-28T22:18:49.912Z,1.65
2022-08-28T22:21:40.635Z,1.25
2022-08-28T22:24:10.427Z,1.77
2022-08-28T22:26:37.952Z,1.90
2022-08-28T22:29:05.883Z,1.30
2022-08-28T22:31:33.047Z,1.90
2022-08-28T22:34:00.078Z,0.90
2022-08-28T22:36:29.120Z,1.35
2022-08-28T22:38:56.873Z,1.42
2022-08-28T22:41:24.435Z,1.58
2022-08-28T22:43:53.585Z,1.25
2022-08-28T22:46:21.104Z,1.33
2022-08-28T22:48:48.815Z,2.42
2022-08-28T22:51:18.691Z,1.08
2022-08-28T22:53:47.371Z,3.15
2022-08-28T22:56:17.128Z,2.17
2022-08-28T22:58:44.504Z,2.17
2022-08-28T23:01:17.560Z,2.30
2022-08-28T23:03:45.641Z,1.50
2022-08-28T23:06:12.707Z,1.77
2022-08-28T23:08:39.844Z,1.75
2022-08-28T23:11:07.001Z,2.33
2022-08-28T23:13:34.550Z,2.10
2022-08-28T23:16:02.165Z,1.70
2022-08-28T23:18:41.593Z,2.65
2022-08-28T23:21:19.576Z,1.27
2022-08-28T23:23:47.046Z,1.58
2022-08-28T23:26:15.421Z,1.00
2022-08-28T23:28:43.160Z,1.75
2022-08-28T23:31:10.740Z,2.28
2022-08-28T23:33:37.793Z,2.07
2022-08-28T23:36:05.501Z,1.20
2022-08-28T23:38:34.828Z,2.03
2022-08-28T23:41:02.175Z,1.10
2022-08-28T23:43:30.005Z,2.08
2022-08-28T23:45:57.088Z,1.30
2022-08-28T23:48:25.012Z,3.60
2022-08-28T23:50:53.001Z,1.70
2022-08-28T23:53:20.432Z,1.43
2022-08-28T23:55:49.915Z,1.63
2022-08-28T23:58:20.773Z,1.00
